Terminal Aerodrome Forecast
Issued by NWS Pendleton, OR

Home | Current Version | Previous Version | Text Only | Print | Product List | Glossary On
Versions: 1 2 3 4 5 6 7 8 9 10 11 12
179
FTUS46 KPDT 251137
TAFPDT
TAF
KPDT 251137Z 2512/2612 15009KT P6SM SKC
     FM251900 33008G15KT P6SM SKC
     FM260600 14006KT P6SM FEW150 SCT250=

USA.gov is the U.S. government's official web portal to all federal, state and local government web resources and services.